Judi M. — WCX8376 — position and weather

sailwx.info

Track history (hours):
 
Tides and Currents Weather Stations Pressure Air Temp Water Temp Dewpoint Dewpoint Depression Visibility Wind Speed Wind Dir Waves Ship Positions

Judi M.

Owner: MANKE TUG & BARGE CO INC, SHELTON, WA. More information available from US FCC via Universal Licensing System and Coast Guard Vessel Documentation Center.

Last reported at 2014-Nov-23 08:47 UTC. Time now 2014-Nov-29 03:41 UTC.
Position N 47°34' W 122°22'.

Length 29 m; draft 4 m.

Type: Tow > 200 m length. MMSI: 366740920.

Date/timePositionNaut miles runAvg speedWind from/ knotsBaromVisibWave heightAir tempDewpointWater temp
2014-Nov-23 08:47N 47°34' W 122°22'0 0.2
2014-Nov-23 08:34N 47°34' W 122°22'0 0.3
2014-Nov-23 08:32N 47°34' W 122°22'3 2.9
2014-Nov-23 07:34N 47°37' W 122°24'0 5.5
2014-Nov-23 07:32N 47°37' W 122°24'4 6.4
2014-Nov-23 06:57N 47°39' W 122°28'2 6.0
2014-Nov-23 06:34N 47°42' W 122°28'6 6.0
2014-Nov-23 05:34N 47°48' W 122°27'0 5.1
2014-Nov-23 05:32N 47°48' W 122°28'6 6.0
2014-Nov-23 04:34N 47°53' W 122°29'0 4.4
2014-Nov-23 04:32N 47°54' W 122°30'4 4.5
2014-Nov-23 03:33N 47°57' W 122°34'1 4.0
2014-Nov-23 03:12N 47°58' W 122°35'3 4.2
2014-Nov-23 02:33N 47°60' W 122°38'7 0.5
2014-Nov-22 12:31N 48°07' W 122°40'4 4.6
2014-Nov-22 11:33N 48°03' W 122°38'6 5.9
2014-Nov-22 10:33N 47°58' W 122°33'4 6.5
2014-Nov-22 09:53N 47°55' W 122°29'2 7.8
2014-Nov-22 09:33N 47°52' W 122°28'2 7.8
2014-Nov-22 09:17N 47°50' W 122°27'6 8.2
2014-Nov-22 08:34N 47°44' W 122°26'8 7.5
2014-Nov-22 07:31N 47°37' W 122°24'3 4.8
2014-Nov-22 06:57N 47°34' W 122°22'0 0.0
2014-Nov-22 06:34N 47°34' W 122°22'0 0.0
2014-Nov-22 06:32N 47°34' W 122°22'0 0.0
2014-Nov-22 05:34N 47°34' W 122°22'0 0.0
2014-Nov-22 05:32N 47°34' W 122°22'0 0.0
2014-Nov-22 04:34N 47°34' W 122°22'0 0.0
2014-Nov-22 04:32N 47°34' W 122°22'0 0.0
2014-Nov-22 03:34N 47°34' W 122°22'0 0.0
2014-Nov-22 03:32N 47°34' W 122°22'0 0.0
2014-Nov-22 02:34N 47°34' W 122°22'0 0.0
2014-Nov-22 02:32N 47°34' W 122°22'0 0.0
2014-Nov-22 01:33N 47°34' W 122°22'0 0.0
2014-Nov-22 01:32N 47°34' W 122°22'0 0.0
2014-Nov-22 00:32N 47°34' W 122°22'0 0.0
2014-Nov-22 00:31N 47°34' W 122°22'0 0.0
2014-Nov-21 23:34N 47°34' W 122°22'0 0.0
2014-Nov-21 23:31N 47°34' W 122°22'0 0.0
2014-Nov-21 22:34N 47°34' W 122°22'0 0.0
2014-Nov-21 22:31N 47°34' W 122°22'0 0.0
2014-Nov-21 21:33N 47°34' W 122°22'0 0.0
2014-Nov-21 21:32N 47°34' W 122°22'0 0.0
2014-Nov-21 20:29N 47°34' W 122°22'0 0.0
2014-Nov-21 20:26N 47°34' W 122°22'0 0.0
2014-Nov-21 19:33N 47°34' W 122°22'0 0.0
2014-Nov-21 19:31N 47°34' W 122°22'0 0.0
2014-Nov-21 18:33N 47°34' W 122°22'0 0.0
2014-Nov-21 18:31N 47°34' W 122°22'0 0.0
2014-Nov-21 17:27N 47°34' W 122°22'0 0.0
2014-Nov-21 17:20N 47°34' W 122°22'0 0.0
2014-Nov-21 16:34N 47°34' W 122°22'0 0.0
2014-Nov-21 16:30N 47°34' W 122°22'0 0.0
2014-Nov-21 15:34N 47°34' W 122°22'0 0.0
2014-Nov-21 15:30N 47°34' W 122°22'0 0.0
2014-Nov-21 14:34N 47°34' W 122°22'0 0.0
2014-Nov-21 14:30N 47°34' W 122°22'1 1.6
2014-Nov-21 13:33N 47°36' W 122°22'0 3.6
2014-Nov-21 13:29N 47°36' W 122°22'6 6.0
2014-Nov-21 12:34N 47°40' W 122°29'0 6.4
2014-Nov-21 12:29N 47°40' W 122°29'6 6.5
2014-Nov-21 11:33N 47°46' W 122°27'0 6.2
2014-Nov-21 11:29N 47°46' W 122°27'7 7.2
2014-Nov-21 10:34N 47°53' W 122°29'0 6.6
2014-Nov-21 10:29N 47°53' W 122°30'8 8.4
2014-Nov-21 09:33N 47°59' W 122°37'10 8.2
2014-Nov-21 08:19N 48°08' W 122°44'7 8.9
2014-Nov-21 07:32N 48°13' W 122°52'8 6.5
2014-Nov-21 06:21N 48°19' W 122°58'5 6.7
2014-Nov-21 05:33N 48°24' W 123°02'9 8.8
2014-Nov-21 04:34N 48°30' W 123°11'10 9.7
2014-Nov-21 03:33N 48°40' W 123°16'8 8.0
2014-Nov-21 02:31N 48°47' W 123°20'7 7.2
2014-Nov-21 01:31N 48°53' W 123°27'7 7.2
2014-Nov-21 00:31N 48°57' W 123°36'5 0.5
2014-Nov-20 15:19N 48°52' W 123°39'0 0.0
2014-Nov-20 14:28N 48°52' W 123°39'1 0.9
2014-Nov-20 13:33N 48°52' W 123°37'5 4.6
2014-Nov-20 12:33N 48°55' W 123°32'8 8.0
2014-Nov-20 11:32N 48°50' W 123°22'8 7.1
2014-Nov-20 10:27N 48°44' W 123°17'7 7.6
2014-Nov-20 09:33N 48°37' W 123°14'6 5.8
2014-Nov-20 08:33N 48°32' W 123°11'5 5.4
2014-Nov-20 07:34N 48°27' W 123°06'5 5.3
2014-Nov-20 06:33N 48°23' W 123°00'6 5.9
2014-Nov-20 05:30N 48°18' W 122°56'16 8.1
2014-Nov-20 03:32N 48°06' W 122°39'9 9.3
2014-Nov-20 02:34N 47°58' W 122°34'8 7.8
2014-Nov-20 01:34N 47°51' W 122°27'3 7.3
2014-Nov-20 01:09N 47°49' W 122°26'4 7.1
2014-Nov-20 00:34N 47°44' W 122°26'1 6.9
2014-Nov-20 00:29N 47°44' W 122°26'6 6.8
2014-Nov-19 23:33N 47°38' W 122°26'1 7.3
2014-Nov-19 23:29N 47°37' W 122°25'4 4.0
2014-Nov-19 22:33N 47°34' W 122°22'0 0.0
2014-Nov-18 18:32N 47°34' W 122°22'0 0.0
2014-Nov-18 18:31N 47°34' W 122°22'2 1.8
2014-Nov-18 17:33N 47°36' W 122°22'0 3.7
2014-Nov-18 17:26N 47°36' W 122°23'6 6.6
2014-Nov-18 16:33N 47°41' W 122°28'0 7.4
2014-Nov-18 16:31N 47°41' W 122°28'8 7.8
2014-Nov-18 15:33N 47°49' W 122°28'0 7.4
2014-Nov-18 15:31N 47°49' W 122°28'7 7.1
2014-Nov-18 14:33N 47°56' W 122°32'0 7.3
2014-Nov-18 14:30N 47°56' W 122°32'6 6.1
2014-Nov-18 13:33N 48°01' W 122°37'1 5.7
2014-Nov-18 13:20N 48°02' W 122°37'5 6.3
2014-Nov-18 12:32N 48°07' W 122°38'7 6.2
2014-Nov-18 11:27N 48°11' W 122°45'8 6.8
2014-Nov-18 10:17N 48°19' W 122°47'0 7.8
2014-Nov-18 10:14N 48°19' W 122°47'5 7.1
2014-Nov-18 09:31N 48°24' W 122°45'5 7.0
2014-Nov-18 08:44N 48°30' W 122°45'1 6.6
2014-Nov-18 08:33N 48°31' W 122°45'2 6.7
2014-Nov-18 08:15N 48°33' W 122°45'5 6.6
2014-Nov-18 07:33N 48°38' W 122°45'7 7.4
2014-Nov-18 06:33N 48°45' W 122°47'9 9.0
2014-Nov-18 05:33N 48°50' W 122°59'8 8.3
2014-Nov-18 04:33N 48°54' W 123°09'8 8.4
2014-Nov-18 03:33N 49°00' W 123°19'8 8.0
2014-Nov-18 02:33N 49°07' W 123°26'8 8.2
2014-Nov-18 01:33N 49°15' W 123°27'8 8.0
2014-Nov-18 00:31N 49°23' W 123°26'4 0.4
2014-Nov-17 14:33N 49°27' W 123°28'8 7.7
2014-Nov-17 13:33N 49°19' W 123°27'8 8.0
2014-Nov-17 12:33N 49°11' W 123°26'8 8.2
2014-Nov-17 11:33N 49°04' W 123°21'7 7.2
2014-Nov-17 10:33N 48°60' W 123°12'6 6.3
2014-Nov-17 09:33N 48°55' W 123°05'6 6.1
2014-Nov-17 08:33N 48°51' W 122°59'7 6.5
2014-Nov-17 07:33N 48°47' W 122°51'7 7.0
2014-Nov-17 06:33N 48°42' W 122°43'6 6.4
2014-Nov-17 05:33N 48°36' W 122°45'8 7.8
2014-Nov-17 04:33N 48°28' W 122°44'7 7.2
2014-Nov-17 03:33N 48°21' W 122°45'7 7.0
2014-Nov-17 02:33N 48°14' W 122°48'10 9.1
2014-Nov-17 01:30N 48°07' W 122°39'910.0
2014-Nov-17 00:34N 47°58' W 122°34'041.2
2014-Nov-17 00:33N 47°58' W 122°34'2 9.2
2014-Nov-17 00:19N 47°57' W 122°31'6 8.5
2014-Nov-16 23:33N 47°51' W 122°27'1 7.3
2014-Nov-16 23:28N 47°50' W 122°27'7 8.0
2014-Nov-16 22:33N 47°43' W 122°26'1 7.2
2014-Nov-16 22:29N 47°42' W 122°26'6 6.9
2014-Nov-16 21:32N 47°36' W 122°22'  
2014-Nov-14 16:54N 47°34' W 122°22'0 0.1
2014-Nov-14 16:33N 47°34' W 122°22'0 4.1
2014-Nov-14 16:29N 47°35' W 122°22'4 4.5
2014-Nov-14 15:33N 47°38' W 122°26'1 7.2
2014-Nov-14 15:29N 47°38' W 122°27'7 7.2
2014-Nov-14 14:33N 47°45' W 122°27'8 7.5
2014-Nov-14 13:28N 47°53' W 122°29'7 7.2
2014-Nov-14 12:33N 47°58' W 122°36'7 6.9
2014-Nov-14 11:32N 48°04' W 122°40'10 5.6
2014-Nov-14 09:42N 48°11' W 122°52'1 5.3
2014-Nov-14 09:33N 48°11' W 122°53'6 5.8
2014-Nov-14 08:33N 48°12' W 123°01'2 6.1
2014-Nov-14 08:09N 48°12' W 123°05'4 6.5
2014-Nov-14 07:32N 48°11' W 123°11'1 6.3
2014-Nov-14 07:22N 48°11' W 123°12'5 6.1
2014-Nov-14 06:33N 48°09' W 123°19'6 5.7
2014-Nov-14 05:33N 48°08' W 123°28'0 0.0
2014-Nov-14 04:50N 48°08' W 123°28'0 0.0
2014-Nov-14 04:33N 48°08' W 123°28'0 0.0
2014-Nov-14 04:25N 48°08' W 123°28'0 0.0
2014-Nov-14 03:33N 48°08' W 123°28'0 0.0
2014-Nov-14 03:30N 48°08' W 123°28'0 0.0
2014-Nov-14 02:33N 48°08' W 123°28'0 0.0
2014-Nov-14 01:33N 48°08' W 123°28'0 0.0
2014-Nov-14 00:34N 48°08' W 123°28'0 0.0
2014-Nov-14 00:33N 48°08' W 123°28'0 0.0
2014-Nov-13 23:59N 48°08' W 123°28'0 0.0
2014-Nov-13 23:33N 48°08' W 123°28'0 0.0
2014-Nov-13 22:33N 48°08' W 123°28'0 0.0
2014-Nov-13 21:58N 48°08' W 123°28'0 0.0
2014-Nov-13 21:33N 48°08' W 123°28'0 0.0
2014-Nov-13 21:23N 48°08' W 123°28'0 0.0
2014-Nov-13 20:33N 48°08' W 123°28'0 0.0
2014-Nov-13 19:33N 48°08' W 123°28'0 0.0
2014-Nov-13 18:33N 48°08' W 123°28'0 0.0
2014-Nov-13 18:22N 48°08' W 123°28'0 0.0
2014-Nov-13 17:33N 48°08' W 123°28'0 0.0
2014-Nov-13 16:33N 48°08' W 123°28'0 0.0
2014-Nov-13 16:01N 48°08' W 123°28'0 0.1
2014-Nov-13 15:33N 48°08' W 123°28'0 0.0
2014-Nov-13 15:31N 48°08' W 123°28'4 3.8
2014-Nov-13 14:33N 48°08' W 123°22'2 7.7
2014-Nov-13 14:21N 48°09' W 123°20'6 7.4
2014-Nov-13 13:33N 48°11' W 123°12'7 7.1
2014-Nov-13 12:32N 48°13' W 123°01'7 6.9
2014-Nov-13 11:33N 48°12' W 122°51'7 7.2
2014-Nov-13 10:37N 48°09' W 122°42'1 7.6
2014-Nov-13 10:27N 48°08' W 122°40'7 8.5
2014-Nov-13 09:38N 48°01' W 122°37'110.0
2014-Nov-13 09:33N 48°01' W 122°36'0 8.2
2014-Nov-13 09:32N 48°01' W 122°36'  
Track history (hours):
 
Tides and Currents Weather Stations Pressure Air Temp Water Temp Dewpoint Dewpoint Depression Visibility Wind Speed Wind Dir Waves Ship Positions

Judi M.

Owner: MANKE TUG & BARGE CO INC, SHELTON, WA. More information available from US FCC via Universal Licensing System and Coast Guard Vessel Documentation Center.

Last reported at 2014-Nov-23 08:47 UTC. Time now 2014-Nov-29 03:41 UTC.
Position N 47°34' W 122°22'.

Length 29 m; draft 4 m.

Type: Tow > 200 m length. MMSI: 366740920.

Date/timePositionNaut miles runAvg speedWind from/ knotsBaromVisibWave heightAir tempDewpointWater temp
2014-Nov-23 08:47N 47°34' W 122°22'0 0.2
2014-Nov-23 08:34N 47°34' W 122°22'0 0.3
2014-Nov-23 08:32N 47°34' W 122°22'3 2.9
2014-Nov-23 07:34N 47°37' W 122°24'0 5.5
2014-Nov-23 07:32N 47°37' W 122°24'4 6.4
2014-Nov-23 06:57N 47°39' W 122°28'2 6.0
2014-Nov-23 06:34N 47°42' W 122°28'6 6.0
2014-Nov-23 05:34N 47°48' W 122°27'0 5.1
2014-Nov-23 05:32N 47°48' W 122°28'6 6.0
2014-Nov-23 04:34N 47°53' W 122°29'0 4.4
2014-Nov-23 04:32N 47°54' W 122°30'4 4.5
2014-Nov-23 03:33N 47°57' W 122°34'1 4.0
2014-Nov-23 03:12N 47°58' W 122°35'3 4.2
2014-Nov-23 02:33N 47°60' W 122°38'7 0.5
2014-Nov-22 12:31N 48°07' W 122°40'4 4.6
2014-Nov-22 11:33N 48°03' W 122°38'6 5.9
2014-Nov-22 10:33N 47°58' W 122°33'4 6.5
2014-Nov-22 09:53N 47°55' W 122°29'2 7.8
2014-Nov-22 09:33N 47°52' W 122°28'2 7.8
2014-Nov-22 09:17N 47°50' W 122°27'6 8.2
2014-Nov-22 08:34N 47°44' W 122°26'8 7.5
2014-Nov-22 07:31N 47°37' W 122°24'3 4.8
2014-Nov-22 06:57N 47°34' W 122°22'0 0.0
2014-Nov-22 06:34N 47°34' W 122°22'0 0.0
2014-Nov-22 06:32N 47°34' W 122°22'0 0.0
2014-Nov-22 05:34N 47°34' W 122°22'0 0.0
2014-Nov-22 05:32N 47°34' W 122°22'0 0.0
2014-Nov-22 04:34N 47°34' W 122°22'0 0.0
2014-Nov-22 04:32N 47°34' W 122°22'0 0.0
2014-Nov-22 03:34N 47°34' W 122°22'0 0.0
2014-Nov-22 03:32N 47°34' W 122°22'0 0.0
2014-Nov-22 02:34N 47°34' W 122°22'0 0.0
2014-Nov-22 02:32N 47°34' W 122°22'0 0.0
2014-Nov-22 01:33N 47°34' W 122°22'0 0.0
2014-Nov-22 01:32N 47°34' W 122°22'0 0.0
2014-Nov-22 00:32N 47°34' W 122°22'0 0.0
2014-Nov-22 00:31N 47°34' W 122°22'0 0.0
2014-Nov-21 23:34N 47°34' W 122°22'0 0.0
2014-Nov-21 23:31N 47°34' W 122°22'0 0.0
2014-Nov-21 22:34N 47°34' W 122°22'0 0.0
2014-Nov-21 22:31N 47°34' W 122°22'0 0.0
2014-Nov-21 21:33N 47°34' W 122°22'0 0.0
2014-Nov-21 21:32N 47°34' W 122°22'0 0.0
2014-Nov-21 20:29N 47°34' W 122°22'0 0.0
2014-Nov-21 20:26N 47°34' W 122°22'0 0.0
2014-Nov-21 19:33N 47°34' W 122°22'0 0.0
2014-Nov-21 19:31N 47°34' W 122°22'0 0.0
2014-Nov-21 18:33N 47°34' W 122°22'0 0.0
2014-Nov-21 18:31N 47°34' W 122°22'0 0.0
2014-Nov-21 17:27N 47°34' W 122°22'0 0.0
2014-Nov-21 17:20N 47°34' W 122°22'0 0.0
2014-Nov-21 16:34N 47°34' W 122°22'0 0.0
2014-Nov-21 16:30N 47°34' W 122°22'0 0.0
2014-Nov-21 15:34N 47°34' W 122°22'0 0.0
2014-Nov-21 15:30N 47°34' W 122°22'0 0.0
2014-Nov-21 14:34N 47°34' W 122°22'0 0.0
2014-Nov-21 14:30N 47°34' W 122°22'1 1.6
2014-Nov-21 13:33N 47°36' W 122°22'0 3.6
2014-Nov-21 13:29N 47°36' W 122°22'6 6.0
2014-Nov-21 12:34N 47°40' W 122°29'0 6.4
2014-Nov-21 12:29N 47°40' W 122°29'6 6.5
2014-Nov-21 11:33N 47°46' W 122°27'0 6.2
2014-Nov-21 11:29N 47°46' W 122°27'7 7.2
2014-Nov-21 10:34N 47°53' W 122°29'0 6.6
2014-Nov-21 10:29N 47°53' W 122°30'8 8.4
2014-Nov-21 09:33N 47°59' W 122°37'10 8.2
2014-Nov-21 08:19N 48°08' W 122°44'7 8.9
2014-Nov-21 07:32N 48°13' W 122°52'8 6.5
2014-Nov-21 06:21N 48°19' W 122°58'5 6.7
2014-Nov-21 05:33N 48°24' W 123°02'9 8.8
2014-Nov-21 04:34N 48°30' W 123°11'10 9.7
2014-Nov-21 03:33N 48°40' W 123°16'8 8.0
2014-Nov-21 02:31N 48°47' W 123°20'7 7.2
2014-Nov-21 01:31N 48°53' W 123°27'7 7.2
2014-Nov-21 00:31N 48°57' W 123°36'5 0.5
2014-Nov-20 15:19N 48°52' W 123°39'0 0.0
2014-Nov-20 14:28N 48°52' W 123°39'1 0.9
2014-Nov-20 13:33N 48°52' W 123°37'5 4.6
2014-Nov-20 12:33N 48°55' W 123°32'8 8.0
2014-Nov-20 11:32N 48°50' W 123°22'8 7.1
2014-Nov-20 10:27N 48°44' W 123°17'7 7.6
2014-Nov-20 09:33N 48°37' W 123°14'6 5.8
2014-Nov-20 08:33N 48°32' W 123°11'5 5.4
2014-Nov-20 07:34N 48°27' W 123°06'5 5.3
2014-Nov-20 06:33N 48°23' W 123°00'6 5.9
2014-Nov-20 05:30N 48°18' W 122°56'16 8.1
2014-Nov-20 03:32N 48°06' W 122°39'9 9.3
2014-Nov-20 02:34N 47°58' W 122°34'8 7.8
2014-Nov-20 01:34N 47°51' W 122°27'3 7.3
2014-Nov-20 01:09N 47°49' W 122°26'4 7.1
2014-Nov-20 00:34N 47°44' W 122°26'1 6.9
2014-Nov-20 00:29N 47°44' W 122°26'6 6.8
2014-Nov-19 23:33N 47°38' W 122°26'1 7.3
2014-Nov-19 23:29N 47°37' W 122°25'4 4.0
2014-Nov-19 22:33N 47°34' W 122°22'0 0.0
2014-Nov-18 18:32N 47°34' W 122°22'0 0.0
2014-Nov-18 18:31N 47°34' W 122°22'2 1.8
2014-Nov-18 17:33N 47°36' W 122°22'0 3.7
2014-Nov-18 17:26N 47°36' W 122°23'6 6.6
2014-Nov-18 16:33N 47°41' W 122°28'0 7.4
2014-Nov-18 16:31N 47°41' W 122°28'8 7.8
2014-Nov-18 15:33N 47°49' W 122°28'0 7.4
2014-Nov-18 15:31N 47°49' W 122°28'7 7.1
2014-Nov-18 14:33N 47°56' W 122°32'0 7.3
2014-Nov-18 14:30N 47°56' W 122°32'6 6.1
2014-Nov-18 13:33N 48°01' W 122°37'1 5.7
2014-Nov-18 13:20N 48°02' W 122°37'5 6.3
2014-Nov-18 12:32N 48°07' W 122°38'7 6.2
2014-Nov-18 11:27N 48°11' W 122°45'8 6.8
2014-Nov-18 10:17N 48°19' W 122°47'0 7.8
2014-Nov-18 10:14N 48°19' W 122°47'5 7.1
2014-Nov-18 09:31N 48°24' W 122°45'5 7.0
2014-Nov-18 08:44N 48°30' W 122°45'1 6.6
2014-Nov-18 08:33N 48°31' W 122°45'2 6.7
2014-Nov-18 08:15N 48°33' W 122°45'5 6.6
2014-Nov-18 07:33N 48°38' W 122°45'7 7.4
2014-Nov-18 06:33N 48°45' W 122°47'9 9.0
2014-Nov-18 05:33N 48°50' W 122°59'8 8.3
2014-Nov-18 04:33N 48°54' W 123°09'8 8.4
2014-Nov-18 03:33N 49°00' W 123°19'8 8.0
2014-Nov-18 02:33N 49°07' W 123°26'8 8.2
2014-Nov-18 01:33N 49°15' W 123°27'8 8.0
2014-Nov-18 00:31N 49°23' W 123°26'4 0.4
2014-Nov-17 14:33N 49°27' W 123°28'8 7.7
2014-Nov-17 13:33N 49°19' W 123°27'8 8.0
2014-Nov-17 12:33N 49°11' W 123°26'8 8.2
2014-Nov-17 11:33N 49°04' W 123°21'7 7.2
2014-Nov-17 10:33N 48°60' W 123°12'6 6.3
2014-Nov-17 09:33N 48°55' W 123°05'6 6.1
2014-Nov-17 08:33N 48°51' W 122°59'7 6.5
2014-Nov-17 07:33N 48°47' W 122°51'7 7.0
2014-Nov-17 06:33N 48°42' W 122°43'6 6.4
2014-Nov-17 05:33N 48°36' W 122°45'8 7.8
2014-Nov-17 04:33N 48°28' W 122°44'7 7.2
2014-Nov-17 03:33N 48°21' W 122°45'7 7.0
2014-Nov-17 02:33N 48°14' W 122°48'10 9.1
2014-Nov-17 01:30N 48°07' W 122°39'910.0
2014-Nov-17 00:34N 47°58' W 122°34'041.2
2014-Nov-17 00:33N 47°58' W 122°34'2 9.2
2014-Nov-17 00:19N 47°57' W 122°31'6 8.5
2014-Nov-16 23:33N 47°51' W 122°27'1 7.3
2014-Nov-16 23:28N 47°50' W 122°27'7 8.0
2014-Nov-16 22:33N 47°43' W 122°26'1 7.2
2014-Nov-16 22:29N 47°42' W 122°26'6 6.9
2014-Nov-16 21:32N 47°36' W 122°22'  
2014-Nov-14 16:54N 47°34' W 122°22'0 0.1
2014-Nov-14 16:33N 47°34' W 122°22'0 4.1
2014-Nov-14 16:29N 47°35' W 122°22'4 4.5
2014-Nov-14 15:33N 47°38' W 122°26'1 7.2
2014-Nov-14 15:29N 47°38' W 122°27'7 7.2
2014-Nov-14 14:33N 47°45' W 122°27'8 7.5
2014-Nov-14 13:28N 47°53' W 122°29'7 7.2
2014-Nov-14 12:33N 47°58' W 122°36'7 6.9
2014-Nov-14 11:32N 48°04' W 122°40'10 5.6
2014-Nov-14 09:42N 48°11' W 122°52'1 5.3
2014-Nov-14 09:33N 48°11' W 122°53'6 5.8
2014-Nov-14 08:33N 48°12' W 123°01'2 6.1
2014-Nov-14 08:09N 48°12' W 123°05'4 6.5
2014-Nov-14 07:32N 48°11' W 123°11'1 6.3
2014-Nov-14 07:22N 48°11' W 123°12'5 6.1
2014-Nov-14 06:33N 48°09' W 123°19'6 5.7
2014-Nov-14 05:33N 48°08' W 123°28'0 0.0
2014-Nov-14 04:50N 48°08' W 123°28'0 0.0
2014-Nov-14 04:33N 48°08' W 123°28'0 0.0
2014-Nov-14 04:25N 48°08' W 123°28'0 0.0
2014-Nov-14 03:33N 48°08' W 123°28'0 0.0
2014-Nov-14 03:30N 48°08' W 123°28'0 0.0
2014-Nov-14 02:33N 48°08' W 123°28'0 0.0
2014-Nov-14 01:33N 48°08' W 123°28'0 0.0
2014-Nov-14 00:34N 48°08' W 123°28'0 0.0
2014-Nov-14 00:33N 48°08' W 123°28'0 0.0
2014-Nov-13 23:59N 48°08' W 123°28'0 0.0
2014-Nov-13 23:33N 48°08' W 123°28'0 0.0
2014-Nov-13 22:33N 48°08' W 123°28'0 0.0
2014-Nov-13 21:58N 48°08' W 123°28'0 0.0
2014-Nov-13 21:33N 48°08' W 123°28'0 0.0
2014-Nov-13 21:23N 48°08' W 123°28'0 0.0
2014-Nov-13 20:33N 48°08' W 123°28'0 0.0
2014-Nov-13 19:33N 48°08' W 123°28'0 0.0
2014-Nov-13 18:33N 48°08' W 123°28'0 0.0
2014-Nov-13 18:22N 48°08' W 123°28'0 0.0
2014-Nov-13 17:33N 48°08' W 123°28'0 0.0
2014-Nov-13 16:33N 48°08' W 123°28'0 0.0
2014-Nov-13 16:01N 48°08' W 123°28'0 0.1
2014-Nov-13 15:33N 48°08' W 123°28'0 0.0
2014-Nov-13 15:31N 48°08' W 123°28'4 3.8
2014-Nov-13 14:33N 48°08' W 123°22'2 7.7
2014-Nov-13 14:21N 48°09' W 123°20'6 7.4
2014-Nov-13 13:33N 48°11' W 123°12'7 7.1
2014-Nov-13 12:32N 48°13' W 123°01'7 6.9
2014-Nov-13 11:33N 48°12' W 122°51'7 7.2
2014-Nov-13 10:37N 48°09' W 122°42'1 7.6
2014-Nov-13 10:27N 48°08' W 122°40'7 8.5
2014-Nov-13 09:38N 48°01' W 122°37'110.0
2014-Nov-13 09:33N 48°01' W 122°36'0 8.2
2014-Nov-13 09:32N 48°01' W 122°36'  

Dump ship's entire track history